Aérodrome :
LOGIN :

S'inscrire | Disclaimer

   EN    FR    IT 

 










Légende :    VFR   VFR Marginal   IFR   IFR Intensif   IFR Très Intensif
Visi : 
Plafond : 
>= 8 km
>= 3000ft
5 à 8 km
1000 à 3000 ft
1500m à 5 km
500 à 1000 ft
800 à 1500m
200 à 500 ft
< 800m
< 200 ft
Symboles :   Orages  Brouillard  Fortes neiges  Fortes précipitations  Vent > 20 kt
SIGMETs :   Divers  Orages  Givrage  Turbulence  Onde Orograph.  Cendres Volcan.






- Altitude de l'aérodrome : 472 ft
- Code IATA : GME


UMGG - Gomel

DERNIER METAR :
  • 100700Z 34002MPS CAVOK 20/17 Q1018 R10/CLRD// NOSIG

METARs EXPIRÉS :
  • 100630Z 02002MPS 9000 NSC 19/17 Q1018 R10/D NOSIG
  • 100600Z 02002MPS 8000 NSC 19/17 Q1018 R10/D NOSIG
  • 100530Z 02002MPS 8000 NSC 17/16 Q1018 R10/D NOSIG
  • 100500Z 02002MPS 8000 NSC 17/16 Q1018 R10/290050 NOSIG
  • 100430Z 35002MPS 6000 NSC 17/16 Q1018 R10/290050 NOSIG

TAF TAF UMGG
Valide du 10 à 06h jusqu'au 11 à 06h UTC


100459Z 1006/1106 02006MPS 6000 BKN025 TX26/1011Z TN16/1102Z
TEMPO 1006/1008 2000 -SHRA BR BKN007 SCT030CB
TEMPO 1008/1020 VRB12MPS 2000 TSRA BKN005 BKN030CB
BECMG 1020/1021 33005MPS
TEMPO 1021/1104 0400 FG VV002
TEMPO 1104/1106 2000 BR SCT005



MET'MAP, la Météo Aéronautique d'un coup d'oeil ! - Copyright ORBIFLY Décembre 2007 - Disclaimer

ORBIFLY MET'MAP TEAM :

Programmation & Développement : Alexandra Zaïnal
Sur une idée originale de : Baudouin d'Aumeries
Assistance à la programmation : Marc-Olivier Méhu
Soutien technique & logistique : Manuel Goepfert

Contact : metmap@orbifly.com




SOURCES & CREDITS :

   NOAA